createdAt,value
2023-01-01T00:03:50.780Z,10.52
2023-01-01T00:06:52.242Z,10.93
2023-01-01T00:09:53.989Z,11.93
2023-01-01T00:12:55.912Z,14.70
2023-01-01T00:16:04.025Z,19.10
2023-01-01T00:19:07.111Z,9.75
2023-01-01T00:22:35.242Z,10.45
2023-01-01T00:25:30.097Z,14.15
2023-01-01T00:28:31.938Z,11.98
2023-01-01T00:31:34.585Z,9.40
2023-01-01T00:34:37.425Z,8.60
2023-01-01T00:37:44.888Z,14.13
2023-01-01T00:40:48.052Z,11.98
2023-01-01T00:43:49.896Z,6.85
2023-01-01T00:46:51.408Z,11.35
2023-01-01T00:49:54.234Z,17.92
2023-01-01T00:52:55.754Z,8.88
2023-01-01T00:55:57.803Z,16.60
2023-01-01T00:59:00.905Z,8.70
2023-01-01T01:02:03.651Z,9.20
2023-01-01T01:05:08.086Z,9.25
2023-01-01T01:08:09.602Z,5.65
2023-01-01T01:11:13.661Z,7.90
2023-01-01T01:14:15.188Z,11.85
2023-01-01T01:17:16.706Z,13.02
2023-01-01T01:23:21.417Z,9.43
2023-01-01T01:29:25.471Z,12.15
2023-01-01T01:32:27.042Z,9.07
2023-01-01T01:35:29.866Z,10.95
2023-01-01T01:38:31.750Z,12.38
2023-01-01T01:41:33.412Z,11.48
2023-01-01T01:47:55.801Z,12.85
2023-01-01T01:50:58.577Z,12.57
2023-01-01T01:54:02.985Z,13.45
2023-01-01T01:57:06.857Z,12.65
2023-01-01T02:00:11.982Z,14.75
2023-01-01T02:03:20.286Z,10.68
2023-01-01T02:06:23.366Z,11.02
2023-01-01T02:09:24.870Z,11.48
2023-01-01T02:12:27.004Z,10.50
2023-01-01T02:15:31.416Z,12.23
2023-01-01T02:18:37.436Z,13.30
2023-01-01T02:21:52.657Z,12.13
2023-01-01T02:25:04.930Z,10.10
2023-01-01T02:28:10.480Z,10.95
2023-01-01T02:31:22.805Z,17.10
2023-01-01T02:34:28.353Z,9.27
2023-01-01T02:37:30.050Z,10.95
2023-01-01T02:43:32.920Z,11.10
2023-01-01T02:46:36.293Z,10.20
2023-01-01T02:49:42.117Z,10.43
2023-01-01T02:52:55.196Z,8.30
2023-01-01T02:56:03.651Z,7.95
2023-01-01T02:59:15.710Z,10.35
2023-01-01T03:02:23.356Z,7.90
2023-01-01T03:05:30.095Z,22.95
2023-01-01T03:08:41.491Z,7.68
2023-01-01T03:11:48.289Z,14.43
2023-01-01T03:14:52.775Z,10.43
2023-01-01T03:18:00.863Z,10.30
2023-01-01T03:21:03.896Z,11.30
2023-01-01T03:24:05.531Z,7.90
2023-01-01T03:30:11.107Z,6.78
2023-01-01T03:33:25.463Z,7.82
2023-01-01T03:36:29.393Z,7.85
2023-01-01T03:39:34.441Z,7.57
2023-01-01T03:42:39.080Z,7.97
2023-01-01T03:45:42.454Z,6.85
2023-01-01T03:48:45.314Z,6.07
2023-01-01T03:51:57.299Z,7.47
2023-01-01T03:55:04.208Z,5.53
2023-01-01T03:58:10.340Z,4.60
2023-01-01T04:01:15.641Z,5.03
2023-01-01T04:04:19.100Z,5.25
2023-01-01T04:07:21.167Z,6.38
2023-01-01T04:10:23.486Z,11.35
2023-01-01T04:13:25.641Z,5.95
2023-01-01T04:16:27.389Z,6.25
2023-01-01T04:19:30.297Z,4.63
2023-01-01T04:22:31.744Z,5.25
2023-01-01T04:25:33.320Z,3.30
2023-01-01T04:28:34.992Z,11.55
2023-01-01T04:31:36.506Z,3.63
2023-01-01T04:34:39.333Z,6.05
2023-01-01T04:37:42.845Z,6.57
2023-01-01T04:40:44.433Z,5.75
2023-01-01T04:43:46.936Z,4.05
2023-01-01T04:46:59.996Z,7.03
2023-01-01T04:50:03.416Z,6.60
2023-01-01T04:53:04.895Z,4.20
2023-01-01T04:56:07.729Z,4.13
2023-01-01T04:59:09.217Z,6.95
2023-01-01T05:02:10.855Z,7.35
2023-01-01T05:08:15.395Z,4.80
2023-01-01T05:11:18.754Z,5.65
2023-01-01T05:14:20.442Z,3.60
2023-01-01T05:17:21.937Z,7.28
2023-01-01T05:20:24.764Z,7.68
2023-01-01T05:23:26.214Z,5.55
2023-01-01T05:26:29.172Z,9.40
2023-01-01T05:29:31.371Z,4.95
2023-01-01T05:32:32.926Z,5.43
2023-01-01T05:35:35.854Z,3.63
2023-01-01T05:38:37.703Z,7.28
2023-01-01T05:41:39.798Z,3.72
2023-01-01T05:44:41.763Z,5.30
2023-01-01T05:47:43.228Z,3.22
2023-01-01T05:50:46.053Z,5.90
2023-01-01T05:53:48.309Z,2.78
2023-01-01T05:56:49.912Z,3.00
2023-01-01T06:02:56.376Z,5.10
2023-01-01T06:06:07.933Z,3.28
2023-01-01T06:09:09.613Z,1.80
2023-01-01T06:12:11.647Z,5.38
2023-01-01T06:15:13.332Z,3.67
2023-01-01T06:18:14.893Z,5.38
2023-01-01T06:21:19.490Z,3.38
2023-01-01T06:24:21.318Z,4.85
2023-01-01T06:27:30.805Z,4.22
2023-01-01T06:30:32.584Z,3.90
2023-01-01T06:33:34.616Z,4.05
2023-01-01T06:36:44.414Z,4.30
2023-01-01T06:39:46.178Z,5.10
2023-01-01T06:42:47.718Z,1.77
2023-01-01T06:45:49.209Z,1.80
2023-01-01T06:48:53.278Z,2.75
2023-01-01T06:51:56.857Z,3.75
2023-01-01T06:55:00.467Z,2.25
2023-01-01T06:58:01.960Z,3.67
2023-01-01T07:01:08.635Z,2.15
2023-01-01T07:04:12.344Z,4.63
2023-01-01T07:07:15.147Z,3.42
2023-01-01T07:10:16.643Z,4.85
2023-01-01T07:13:18.391Z,4.57
2023-01-01T07:16:22.251Z,1.52
2023-01-01T07:19:23.793Z,4.25
2023-01-01T07:22:30.090Z,1.50
2023-01-01T07:25:31.789Z,4.63
2023-01-01T07:31:35.499Z,4.30
2023-01-01T07:34:47.379Z,3.70
2023-01-01T07:37:53.292Z,5.53
2023-01-01T07:40:54.883Z,2.65
2023-01-01T07:43:56.667Z,2.83
2023-01-01T07:47:02.506Z,1.83
2023-01-01T07:50:04.709Z,2.63
2023-01-01T07:53:07.504Z,2.67
2023-01-01T07:56:09.277Z,4.35
2023-01-01T07:59:14.373Z,8.25
2023-01-01T08:02:18.615Z,3.35
2023-01-01T08:05:26.216Z,2.28
2023-01-01T08:08:30.656Z,3.38
2023-01-01T08:11:32.175Z,4.40
2023-01-01T08:14:33.661Z,3.83
2023-01-01T08:17:37.783Z,3.17
2023-01-01T08:20:46.685Z,10.23
2023-01-01T08:23:49.489Z,4.22
2023-01-01T08:26:51.123Z,5.07
2023-01-01T08:29:52.589Z,3.92
2023-01-01T08:32:54.051Z,3.13
2023-01-01T08:35:55.560Z,3.95
2023-01-01T08:38:58.433Z,7.32
2023-01-01T08:42:00.770Z,2.10
2023-01-01T08:45:02.249Z,2.85
2023-01-01T08:48:10.064Z,4.57
2023-01-01T08:51:16.480Z,3.30
2023-01-01T08:54:19.305Z,5.53
2023-01-01T08:57:20.811Z,2.83
2023-01-01T09:00:25.555Z,7.28
2023-01-01T09:03:27.103Z,2.22
2023-01-01T09:09:32.026Z,3.50
2023-01-01T09:12:34.938Z,2.25
2023-01-01T09:15:38.034Z,5.30
2023-01-01T09:18:39.676Z,3.20
2023-01-01T09:21:41.091Z,4.88
2023-01-01T09:24:46.383Z,3.63
2023-01-01T09:27:48.119Z,8.05
2023-01-01T09:30:53.895Z,2.00
2023-01-01T09:33:55.360Z,4.50
2023-01-01T09:36:56.821Z,4.72
2023-01-01T09:39:59.605Z,6.72
2023-01-01T09:43:13.254Z,2.85
2023-01-01T09:46:14.740Z,6.28
2023-01-01T09:49:18.899Z,5.32
2023-01-01T09:52:20.749Z,4.22
2023-01-01T09:55:26.744Z,4.63
2023-01-01T09:58:32.735Z,4.78
2023-01-01T10:01:42.769Z,6.88
2023-01-01T10:04:55.509Z,4.43
2023-01-01T10:08:01.295Z,4.40
2023-01-01T10:11:11.218Z,2.65
2023-01-01T10:14:17.355Z,3.42
2023-01-01T10:17:23.437Z,5.38
2023-01-01T10:20:28.740Z,3.58
2023-01-01T10:23:34.159Z,5.25
2023-01-01T10:26:37.501Z,2.60
2023-01-01T10:29:42.277Z,4.85
2023-01-01T10:32:47.479Z,4.22
2023-01-01T10:35:53.913Z,7.68
2023-01-01T10:38:55.392Z,6.60
2023-01-01T10:41:58.716Z,4.43
2023-01-01T10:45:00.395Z,4.15
2023-01-01T10:48:14.018Z,6.00
2023-01-01T10:51:17.225Z,2.88
2023-01-01T10:54:31.338Z,3.35
2023-01-01T10:57:36.198Z,4.00
2023-01-01T11:00:37.712Z,2.70
2023-01-01T11:03:53.688Z,2.45
2023-01-01T11:06:57.248Z,3.22
2023-01-01T11:10:04.866Z,2.90
2023-01-01T11:13:17.839Z,4.18
2023-01-01T11:16:20.001Z,2.00
2023-01-01T11:19:24.185Z,3.00
2023-01-01T11:22:43.255Z,1.40
2023-01-01T11:25:57.085Z,4.00
2023-01-01T11:29:02.123Z,2.88
2023-01-01T11:32:11.363Z,1.73
2023-01-01T11:35:18.183Z,1.48
2023-01-01T11:38:30.559Z,3.10
2023-01-01T11:41:41.317Z,3.45
2023-01-01T11:44:50.804Z,2.05
2023-01-01T11:47:55.135Z,2.70
2023-01-01T11:51:00.406Z,3.78
2023-01-01T11:54:11.211Z,3.28
2023-01-01T11:57:17.218Z,3.03
2023-01-01T12:00:20.265Z,1.88
2023-01-01T12:03:29.572Z,2.67
2023-01-01T12:06:38.431Z,2.90
2023-01-01T12:09:43.470Z,2.22
2023-01-01T12:12:50.743Z,1.42
2023-01-01T12:16:00.381Z,3.90
2023-01-01T12:19:08.965Z,2.65
2023-01-01T12:22:15.460Z,3.83
2023-01-01T12:25:19.192Z,5.53
2023-01-01T12:28:29.935Z,3.42
2023-01-01T12:31:38.734Z,3.30
2023-01-01T12:34:45.686Z,2.47
2023-01-01T12:37:51.343Z,2.97
2023-01-01T12:40:59.069Z,2.10
2023-01-01T12:44:12.488Z,2.22
2023-01-01T12:47:27.970Z,2.97
2023-01-01T12:50:38.098Z,2.58
2023-01-01T12:53:49.846Z,3.30
2023-01-01T12:56:57.205Z,2.83
2023-01-01T13:00:02.242Z,3.92
2023-01-01T13:03:10.420Z,3.47
2023-01-01T13:06:26.588Z,6.22
2023-01-01T13:09:33.549Z,7.40
2023-01-01T13:12:35.359Z,4.03
2023-01-01T13:19:33.027Z,5.10
2023-01-01T13:22:39.965Z,6.32
2023-01-01T13:25:41.411Z,5.18
2023-01-01T13:28:42.991Z,10.63
2023-01-01T13:32:00.649Z,4.88
2023-01-01T13:35:15.611Z,3.63
2023-01-01T13:38:44.278Z,3.03
2023-01-01T13:41:46.054Z,7.63
2023-01-01T13:48:09.569Z,3.42
2023-01-01T13:51:55.360Z,6.50
2023-01-01T13:55:24.895Z,4.90
2023-01-01T13:58:40.578Z,4.70
2023-01-01T14:01:53.175Z,3.63
2023-01-01T14:04:56.479Z,4.18
2023-01-01T14:07:59.790Z,3.78
2023-01-01T14:11:10.100Z,4.93
2023-01-01T14:14:19.222Z,2.53
2023-01-01T14:17:20.838Z,4.68
2023-01-01T14:20:26.926Z,5.68
2023-01-01T14:23:33.094Z,4.30
2023-01-01T14:26:37.768Z,3.33
2023-01-01T14:29:39.251Z,4.55
2023-01-01T14:32:40.769Z,4.65
2023-01-01T14:35:51.289Z,6.97
2023-01-01T14:38:55.635Z,7.45
2023-01-01T14:41:59.857Z,12.82
2023-01-01T14:45:01.503Z,10.18
2023-01-01T14:48:04.064Z,7.30
2023-01-01T14:51:05.923Z,7.60
2023-01-01T14:54:16.877Z,5.53
2023-01-01T14:57:24.654Z,4.03
2023-01-01T15:00:28.273Z,5.25
2023-01-01T15:03:31.379Z,6.57
2023-01-01T15:06:32.907Z,5.70
2023-01-01T15:09:35.707Z,6.72
2023-01-01T15:12:37.177Z,6.43
2023-01-01T15:15:41.415Z,6.78
2023-01-01T15:18:43.943Z,4.95
2023-01-01T15:21:45.481Z,8.40
2023-01-01T15:27:50.749Z,2.95
2023-01-01T15:30:53.370Z,6.45
2023-01-01T15:33:54.974Z,6.80
2023-01-01T15:36:57.492Z,5.80
2023-01-01T15:40:01.706Z,7.85
2023-01-01T15:43:15.862Z,4.72
2023-01-01T15:46:20.520Z,3.15
2023-01-01T15:49:28.617Z,9.98
2023-01-01T15:52:30.309Z,8.65
2023-01-01T15:55:37.400Z,5.90
2023-01-01T15:58:41.654Z,4.97
2023-01-01T16:01:47.631Z,6.00
2023-01-01T16:04:50.249Z,5.95
2023-01-01T16:07:58.309Z,7.60
2023-01-01T16:11:01.173Z,5.03
2023-01-01T16:14:02.824Z,6.22
2023-01-01T16:17:04.551Z,5.93
2023-01-01T16:23:11.604Z,4.30
2023-01-01T16:26:21.313Z,6.70
2023-01-01T16:29:22.798Z,6.25
2023-01-01T16:32:24.441Z,5.13
2023-01-01T16:35:25.954Z,3.67
2023-01-01T16:38:28.632Z,7.30
2023-01-01T16:41:31.466Z,8.20
2023-01-01T16:44:35.359Z,6.63
2023-01-01T16:47:36.787Z,4.63
2023-01-01T16:50:38.376Z,3.42
2023-01-01T16:53:42.929Z,5.45
2023-01-01T16:56:45.709Z,6.45
2023-01-01T16:59:47.565Z,5.40
2023-01-01T17:02:49.585Z,8.10
2023-01-01T17:05:51.177Z,7.32
2023-01-01T17:08:59.814Z,12.25
2023-01-01T17:12:06.538Z,8.13
2023-01-01T17:15:08.770Z,6.25
2023-01-01T17:18:10.909Z,7.70
2023-01-01T17:21:12.553Z,8.30
2023-01-01T17:24:14.464Z,6.30
2023-01-01T17:27:17.418Z,5.47
2023-01-01T17:30:19.026Z,7.63
2023-01-01T17:33:28.883Z,9.57
2023-01-01T17:36:30.536Z,5.35
2023-01-01T17:42:34.872Z,6.05
2023-01-01T17:45:36.506Z,4.68
2023-01-01T17:48:37.964Z,4.75
2023-01-01T17:51:39.691Z,5.03
2023-01-01T17:57:44.216Z,8.03
2023-01-01T18:00:45.833Z,5.68
2023-01-01T18:03:48.253Z,5.05
2023-01-01T18:06:54.792Z,5.60
2023-01-01T18:09:57.174Z,6.10
2023-01-01T18:13:01.592Z,4.70
2023-01-01T18:16:05.347Z,5.60
2023-01-01T18:19:07.475Z,4.75
2023-01-01T18:22:08.947Z,4.00
2023-01-01T18:25:10.650Z,8.55
2023-01-01T18:28:13.542Z,6.03
2023-01-01T18:31:15.974Z,3.78
2023-01-01T18:34:23.984Z,5.88
2023-01-01T18:37:25.402Z,2.78
2023-01-01T18:40:27.408Z,6.38
2023-01-01T18:43:33.260Z,4.10
2023-01-01T18:46:38.181Z,3.97
2023-01-01T18:49:48.203Z,3.78
2023-01-01T18:52:52.464Z,4.03
2023-01-01T18:56:01.016Z,4.38
2023-01-01T18:59:16.187Z,6.05
2023-01-01T19:02:28.632Z,4.47
2023-01-01T19:05:31.360Z,3.60
2023-01-01T19:08:32.917Z,5.80
2023-01-01T19:11:35.594Z,5.78
2023-01-01T19:14:38.439Z,3.40
2023-01-01T19:17:44.970Z,3.55
2023-01-01T19:20:49.582Z,3.53
2023-01-01T19:23:52.472Z,6.97
2023-01-01T19:26:56.899Z,2.45
2023-01-01T19:30:01.788Z,4.05
2023-01-01T19:33:03.427Z,2.67
2023-01-01T19:36:05.441Z,4.38
2023-01-01T19:39:07.540Z,4.03
2023-01-01T19:42:09.058Z,2.80
2023-01-01T19:45:12.125Z,4.15
2023-01-01T19:48:13.627Z,3.88
2023-01-01T19:51:15.152Z,5.07
2023-01-01T19:54:16.641Z,3.22
2023-01-01T20:00:21.784Z,2.78
2023-01-01T20:06:48.368Z,5.63
2023-01-01T20:09:49.894Z,6.05
2023-01-01T20:12:51.458Z,3.28
2023-01-01T20:16:00.843Z,4.07
2023-01-01T20:19:06.583Z,3.35
2023-01-01T20:22:08.079Z,3.63
2023-01-01T20:25:10.155Z,2.10
2023-01-01T20:28:11.586Z,3.85
2023-01-01T20:31:17.153Z,3.28
2023-01-01T20:34:21.531Z,3.97
2023-01-01T20:37:23.020Z,3.10
2023-01-01T20:40:24.738Z,3.92
2023-01-01T20:43:26.211Z,3.17
2023-01-01T20:46:29.245Z,6.00
2023-01-01T20:49:30.777Z,4.15
2023-01-01T20:52:34.054Z,2.25
2023-01-01T20:55:35.578Z,4.30
2023-01-01T20:58:37.024Z,3.72
2023-01-01T21:01:40.135Z,3.05
2023-01-01T21:04:42.216Z,3.20
2023-01-01T21:10:45.013Z,2.42
2023-01-01T21:13:46.967Z,3.90
2023-01-01T21:16:50.074Z,3.83
2023-01-01T21:19:54.212Z,3.83
2023-01-01T21:22:59.037Z,3.58
2023-01-01T21:26:00.601Z,4.43
2023-01-01T21:29:05.298Z,3.30
2023-01-01T21:32:16.434Z,2.78
2023-01-01T21:35:19.903Z,3.67
2023-01-01T21:38:23.862Z,2.40
2023-01-01T21:41:25.995Z,3.88
2023-01-01T21:47:34.116Z,7.10
2023-01-01T21:50:39.456Z,3.90
2023-01-01T21:53:41.552Z,11.23
2023-01-01T21:56:49.779Z,5.28
2023-01-01T21:59:51.910Z,7.72
2023-01-01T22:02:54.837Z,5.03
2023-01-01T22:05:59.493Z,5.15
2023-01-01T22:09:01.781Z,6.05
2023-01-01T22:12:18.382Z,6.28
2023-01-01T22:15:28.247Z,3.83
2023-01-01T22:18:32.831Z,7.75
2023-01-01T22:21:35.727Z,5.88
2023-01-01T22:24:37.443Z,4.45
2023-01-01T22:30:41.615Z,5.20
2023-01-01T22:33:46.308Z,7.78
2023-01-01T22:36:48.387Z,6.78
2023-01-01T22:39:50.086Z,8.40
2023-01-01T22:45:53.124Z,6.40
2023-01-01T22:48:58.462Z,4.05
2023-01-01T22:52:01.735Z,4.82
2023-01-01T22:55:03.545Z,7.07
2023-01-01T22:58:05.243Z,7.93
2023-01-01T23:01:06.866Z,6.40
2023-01-01T23:04:09.761Z,5.65
2023-01-01T23:07:11.668Z,6.22
2023-01-01T23:10:14.163Z,11.73
2023-01-01T23:13:16.085Z,7.00
2023-01-01T23:16:17.594Z,8.73
2023-01-01T23:19:20.467Z,11.65
2023-01-01T23:22:21.960Z,7.25
2023-01-01T23:25:23.891Z,6.63
2023-01-01T23:28:26.433Z,9.77
2023-01-01T23:31:28.249Z,9.15
2023-01-01T23:34:31.250Z,10.98
2023-01-01T23:37:34.095Z,11.63
2023-01-01T23:40:35.596Z,5.32
2023-01-01T23:43:43.200Z,7.82
2023-01-01T23:46:45.779Z,7.72
2023-01-01T23:49:48.688Z,8.65
2023-01-01T23:52:50.146Z,8.07
2023-01-01T23:55:51.643Z,9.18
2023-01-01T23:58:53.068Z,9.88
